Patmos, Ohio
Current Conditions -  °F | °C
As of 8:47 AM on Wednesday 22 Oct 2014 (Local Time) from KBVI Reporting Station
Overcast Overcast  
Wind Chill: 41°   Ceiling: 600
Heat Index: 46°   Visibility: 10mi
Dew Point: 43°   Wind: 10mph
Humidity: 87%   Direction: 350°N
Pressure: 30.15"   Gusts: NA
Location:  40.9007°N, 80.8745°W
Report Text: KBVI 221247Z 35009KT 10SM OVC006 08/06 A3015
Loading
Personal Weather Stations






























Interactive Weather Map
Tropical Storm Tracking
New forecast layout! Learn more

10-Day Weather Forecast

Advertisements
Track Severe Weather on mobile